sensor_id;sensor_type;location;lat;lon;timestamp;P1;durP1;ratioP1;P2;durP2;ratioP2
69569;SDS011;56781;42.292;23.146;2022-11-20T00:01:32;3.47;;;1.00;;
69569;SDS011;56781;42.292;23.146;2022-11-20T00:04:02;3.35;;;1.10;;
69569;SDS011;56781;42.292;23.146;2022-11-20T00:06:29;4.55;;;1.13;;
69569;SDS011;56781;42.292;23.146;2022-11-20T00:08:59;5.18;;;1.10;;
69569;SDS011;56781;42.292;23.146;2022-11-20T00:11:28;4.90;;;1.38;;
69569;SDS011;56781;42.292;23.146;2022-11-20T00:14:00;2.92;;;1.00;;
69569;SDS011;56781;42.292;23.146;2022-11-20T00:16:29;3.35;;;1.17;;
69569;SDS011;56781;42.292;23.146;2022-11-20T00:19:01;3.95;;;1.17;;
69569;SDS011;56781;42.292;23.146;2022-11-20T00:21:28;6.90;;;1.25;;
69569;SDS011;56781;42.292;23.146;2022-11-20T00:23:56;4.18;;;1.20;;
69569;SDS011;56781;42.292;23.146;2022-11-20T00:26:24;5.28;;;1.30;;
69569;SDS011;56781;42.292;23.146;2022-11-20T00:28:53;3.33;;;1.23;;
69569;SDS011;56781;42.292;23.146;2022-11-20T00:31:26;4.47;;;1.50;;
69569;SDS011;56781;42.292;23.146;2022-11-20T00:33:55;3.70;;;1.10;;
69569;SDS011;56781;42.292;23.146;2022-11-20T00:36:23;4.57;;;1.10;;
69569;SDS011;56781;42.292;23.146;2022-11-20T00:38:52;3.63;;;1.02;;
69569;SDS011;56781;42.292;23.146;2022-11-20T00:41:20;3.97;;;1.30;;
69569;SDS011;56781;42.292;23.146;2022-11-20T00:43:51;6.47;;;1.30;;
69569;SDS011;56781;42.292;23.146;2022-11-20T00:46:20;4.78;;;1.30;;
69569;SDS011;56781;42.292;23.146;2022-11-20T00:48:50;4.13;;;1.20;;
69569;SDS011;56781;42.292;23.146;2022-11-20T00:51:20;3.67;;;1.10;;
69569;SDS011;56781;42.292;23.146;2022-11-20T00:53:48;3.70;;;1.20;;
69569;SDS011;56781;42.292;23.146;2022-11-20T00:56:19;4.93;;;1.10;;
69569;SDS011;56781;42.292;23.146;2022-11-20T00:58:48;4.82;;;1.40;;
69569;SDS011;56781;42.292;23.146;2022-11-20T01:01:16;5.18;;;1.33;;
69569;SDS011;56781;42.292;23.146;2022-11-20T01:03:46;4.07;;;1.00;;
69569;SDS011;56781;42.292;23.146;2022-11-20T01:06:16;6.07;;;0.80;;
69569;SDS011;56781;42.292;23.146;2022-11-20T01:08:47;2.22;;;0.93;;
69569;SDS011;56781;42.292;23.146;2022-11-20T01:11:34;2.75;;;1.02;;
69569;SDS011;56781;42.292;23.146;2022-11-20T01:14:04;2.92;;;0.90;;
69569;SDS011;56781;42.292;23.146;2022-11-20T01:16:35;2.97;;;0.90;;
69569;SDS011;56781;42.292;23.146;2022-11-20T01:19:05;4.32;;;1.00;;
69569;SDS011;56781;42.292;23.146;2022-11-20T01:21:44;4.10;;;1.00;;
69569;SDS011;56781;42.292;23.146;2022-11-20T01:24:13;3.55;;;1.08;;
69569;SDS011;56781;42.292;23.146;2022-11-20T01:26:45;5.93;;;1.00;;
69569;SDS011;56781;42.292;23.146;2022-11-20T01:29:22;6.28;;;1.00;;
69569;SDS011;56781;42.292;23.146;2022-11-20T01:31:50;3.28;;;1.08;;
69569;SDS011;56781;42.292;23.146;2022-11-20T01:34:19;4.45;;;1.00;;
69569;SDS011;56781;42.292;23.146;2022-11-20T01:36:48;3.72;;;0.90;;
69569;SDS011;56781;42.292;23.146;2022-11-20T01:39:20;2.63;;;0.90;;
69569;SDS011;56781;42.292;23.146;2022-11-20T01:41:53;3.15;;;0.90;;
69569;SDS011;56781;42.292;23.146;2022-11-20T01:44:48;3.63;;;1.00;;
69569;SDS011;56781;42.292;23.146;2022-11-20T01:52:51;5.43;;;1.00;;
69569;SDS011;56781;42.292;23.146;2022-11-20T01:55:27;5.53;;;1.10;;
69569;SDS011;56781;42.292;23.146;2022-11-20T01:57:57;4.72;;;0.90;;
69569;SDS011;56781;42.292;23.146;2022-11-20T02:00:30;5.07;;;1.70;;
69569;SDS011;56781;42.292;23.146;2022-11-20T02:03:00;3.03;;;1.00;;
69569;SDS011;56781;42.292;23.146;2022-11-20T02:05:41;3.65;;;1.15;;
69569;SDS011;56781;42.292;23.146;2022-11-20T02:08:14;4.65;;;0.95;;
69569;SDS011;56781;42.292;23.146;2022-11-20T02:10:42;3.22;;;1.10;;
69569;SDS011;56781;42.292;23.146;2022-11-20T02:13:09;3.85;;;1.08;;
69569;SDS011;56781;42.292;23.146;2022-11-20T02:15:56;3.17;;;1.10;;
69569;SDS011;56781;42.292;23.146;2022-11-20T02:18:34;3.55;;;1.00;;
69569;SDS011;56781;42.292;23.146;2022-11-20T02:24:19;3.25;;;1.05;;
69569;SDS011;56781;42.292;23.146;2022-11-20T02:26:52;4.57;;;0.93;;
69569;SDS011;56781;42.292;23.146;2022-11-20T02:29:35;3.70;;;0.90;;
69569;SDS011;56781;42.292;23.146;2022-11-20T02:32:23;4.72;;;0.90;;
69569;SDS011;56781;42.292;23.146;2022-11-20T02:37:37;6.50;;;1.20;;
69569;SDS011;56781;42.292;23.146;2022-11-20T02:40:06;3.42;;;0.90;;
69569;SDS011;56781;42.292;23.146;2022-11-20T02:42:36;5.55;;;1.27;;
69569;SDS011;56781;42.292;23.146;2022-11-20T02:45:10;3.88;;;1.10;;
69569;SDS011;56781;42.292;23.146;2022-11-20T02:47:41;3.53;;;1.30;;
69569;SDS011;56781;42.292;23.146;2022-11-20T02:50:08;3.33;;;1.00;;
69569;SDS011;56781;42.292;23.146;2022-11-20T02:52:42;4.20;;;1.10;;
69569;SDS011;56781;42.292;23.146;2022-11-20T02:55:12;4.90;;;1.50;;
69569;SDS011;56781;42.292;23.146;2022-11-20T02:57:43;6.05;;;1.30;;
69569;SDS011;56781;42.292;23.146;2022-11-20T03:00:10;4.25;;;1.10;;
69569;SDS011;56781;42.292;23.146;2022-11-20T03:02:38;4.15;;;1.20;;
69569;SDS011;56781;42.292;23.146;2022-11-20T03:05:06;3.60;;;1.25;;
69569;SDS011;56781;42.292;23.146;2022-11-20T03:07:33;4.75;;;1.30;;
69569;SDS011;56781;42.292;23.146;2022-11-20T03:10:12;4.30;;;1.70;;
69569;SDS011;56781;42.292;23.146;2022-11-20T03:12:43;5.88;;;1.27;;
69569;SDS011;56781;42.292;23.146;2022-11-20T03:15:13;5.72;;;1.30;;
69569;SDS011;56781;42.292;23.146;2022-11-20T03:17:40;4.13;;;1.08;;
69569;SDS011;56781;42.292;23.146;2022-11-20T03:20:08;5.97;;;1.10;;
69569;SDS011;56781;42.292;23.146;2022-11-20T03:22:35;5.38;;;1.05;;
69569;SDS011;56781;42.292;23.146;2022-11-20T03:25:13;6.10;;;1.25;;
69569;SDS011;56781;42.292;23.146;2022-11-20T03:27:43;4.18;;;1.10;;
69569;SDS011;56781;42.292;23.146;2022-11-20T03:30:10;4.35;;;0.90;;
69569;SDS011;56781;42.292;23.146;2022-11-20T03:32:44;4.32;;;0.82;;
69569;SDS011;56781;42.292;23.146;2022-11-20T03:35:12;3.92;;;1.23;;
69569;SDS011;56781;42.292;23.146;2022-11-20T03:37:40;3.97;;;1.15;;
69569;SDS011;56781;42.292;23.146;2022-11-20T03:40:07;3.70;;;1.10;;
69569;SDS011;56781;42.292;23.146;2022-11-20T03:42:35;3.17;;;0.90;;
69569;SDS011;56781;42.292;23.146;2022-11-20T03:45:24;3.53;;;1.00;;
69569;SDS011;56781;42.292;23.146;2022-11-20T03:47:51;4.10;;;1.10;;
69569;SDS011;56781;42.292;23.146;2022-11-20T03:50:18;4.07;;;1.08;;
69569;SDS011;56781;42.292;23.146;2022-11-20T03:52:46;3.35;;;0.93;;
69569;SDS011;56781;42.292;23.146;2022-11-20T03:55:13;3.40;;;1.00;;
69569;SDS011;56781;42.292;23.146;2022-11-20T03:57:40;4.60;;;1.10;;
69569;SDS011;56781;42.292;23.146;2022-11-20T04:00:28;3.42;;;1.00;;
69569;SDS011;56781;42.292;23.146;2022-11-20T04:03:00;3.53;;;1.13;;
69569;SDS011;56781;42.292;23.146;2022-11-20T04:05:32;5.93;;;1.15;;
69569;SDS011;56781;42.292;23.146;2022-11-20T04:08:03;4.28;;;1.20;;
69569;SDS011;56781;42.292;23.146;2022-11-20T04:10:32;4.90;;;1.45;;
69569;SDS011;56781;42.292;23.146;2022-11-20T04:13:01;4.93;;;2.00;;
69569;SDS011;56781;42.292;23.146;2022-11-20T04:15:28;5.00;;;1.40;;
69569;SDS011;56781;42.292;23.146;2022-11-20T04:18:03;4.10;;;1.60;;
69569;SDS011;56781;42.292;23.146;2022-11-20T04:20:30;5.03;;;1.50;;
69569;SDS011;56781;42.292;23.146;2022-11-20T04:22:57;4.00;;;1.35;;
69569;SDS011;56781;42.292;23.146;2022-11-20T04:25:24;3.80;;;1.30;;
69569;SDS011;56781;42.292;23.146;2022-11-20T04:27:54;6.20;;;1.55;;
69569;SDS011;56781;42.292;23.146;2022-11-20T04:30:21;5.45;;;1.77;;
69569;SDS011;56781;42.292;23.146;2022-11-20T04:32:48;5.43;;;2.17;;
69569;SDS011;56781;42.292;23.146;2022-11-20T04:35:17;6.07;;;1.80;;
69569;SDS011;56781;42.292;23.146;2022-11-20T04:37:54;3.97;;;1.80;;
69569;SDS011;56781;42.292;23.146;2022-11-20T04:40:45;5.10;;;1.80;;
69569;SDS011;56781;42.292;23.146;2022-11-20T04:43:19;7.30;;;1.90;;
69569;SDS011;56781;42.292;23.146;2022-11-20T04:45:58;6.05;;;1.80;;
69569;SDS011;56781;42.292;23.146;2022-11-20T04:48:27;4.65;;;2.40;;
69569;SDS011;56781;42.292;23.146;2022-11-20T04:51:04;5.75;;;2.42;;
69569;SDS011;56781;42.292;23.146;2022-11-20T04:53:49;6.07;;;2.03;;
69569;SDS011;56781;42.292;23.146;2022-11-20T04:56:19;4.03;;;1.90;;
69569;SDS011;56781;42.292;23.146;2022-11-20T04:58:55;3.92;;;2.03;;
69569;SDS011;56781;42.292;23.146;2022-11-20T05:01:31;4.05;;;1.80;;
69569;SDS011;56781;42.292;23.146;2022-11-20T05:04:03;5.25;;;2.03;;
69569;SDS011;56781;42.292;23.146;2022-11-20T05:06:36;7.03;;;2.13;;
69569;SDS011;56781;42.292;23.146;2022-11-20T05:09:04;5.63;;;2.00;;
69569;SDS011;56781;42.292;23.146;2022-11-20T05:11:38;5.07;;;1.80;;
69569;SDS011;56781;42.292;23.146;2022-11-20T05:14:19;6.35;;;2.45;;
69569;SDS011;56781;42.292;23.146;2022-11-20T05:16:49;11.70;;;4.90;;
69569;SDS011;56781;42.292;23.146;2022-11-20T05:19:18;7.50;;;2.57;;
69569;SDS011;56781;42.292;23.146;2022-11-20T05:21:52;4.88;;;2.05;;
69569;SDS011;56781;42.292;23.146;2022-11-20T05:24:21;4.78;;;1.83;;
69569;SDS011;56781;42.292;23.146;2022-11-20T05:26:49;6.32;;;2.10;;
69569;SDS011;56781;42.292;23.146;2022-11-20T05:29:29;8.85;;;2.53;;
69569;SDS011;56781;42.292;23.146;2022-11-20T05:32:00;6.30;;;2.55;;
69569;SDS011;56781;42.292;23.146;2022-11-20T05:34:40;5.80;;;1.90;;
69569;SDS011;56781;42.292;23.146;2022-11-20T05:37:15;5.28;;;2.20;;
69569;SDS011;56781;42.292;23.146;2022-11-20T05:39:48;4.85;;;1.77;;
69569;SDS011;56781;42.292;23.146;2022-11-20T05:42:15;5.40;;;2.03;;
69569;SDS011;56781;42.292;23.146;2022-11-20T05:45:03;5.43;;;1.97;;
69569;SDS011;56781;42.292;23.146;2022-11-20T05:47:33;10.13;;;2.58;;
69569;SDS011;56781;42.292;23.146;2022-11-20T05:50:05;8.45;;;3.00;;
69569;SDS011;56781;42.292;23.146;2022-11-20T05:52:35;6.78;;;2.20;;
69569;SDS011;56781;42.292;23.146;2022-11-20T05:55:04;8.38;;;2.00;;
69569;SDS011;56781;42.292;23.146;2022-11-20T05:57:39;6.22;;;2.40;;
69569;SDS011;56781;42.292;23.146;2022-11-20T06:00:16;4.35;;;1.70;;
69569;SDS011;56781;42.292;23.146;2022-11-20T06:02:46;6.65;;;1.83;;
69569;SDS011;56781;42.292;23.146;2022-11-20T06:05:14;5.35;;;1.98;;
69569;SDS011;56781;42.292;23.146;2022-11-20T06:07:45;4.80;;;1.50;;
69569;SDS011;56781;42.292;23.146;2022-11-20T06:10:19;4.57;;;1.60;;
69569;SDS011;56781;42.292;23.146;2022-11-20T06:12:59;4.60;;;1.40;;
69569;SDS011;56781;42.292;23.146;2022-11-20T06:15:29;5.95;;;1.65;;
69569;SDS011;56781;42.292;23.146;2022-11-20T06:18:00;5.03;;;1.20;;
69569;SDS011;56781;42.292;23.146;2022-11-20T06:20:35;4.15;;;1.50;;
69569;SDS011;56781;42.292;23.146;2022-11-20T06:23:07;7.47;;;2.72;;
69569;SDS011;56781;42.292;23.146;2022-11-20T06:25:38;8.77;;;2.83;;
69569;SDS011;56781;42.292;23.146;2022-11-20T06:28:17;6.43;;;2.10;;
69569;SDS011;56781;42.292;23.146;2022-11-20T06:30:50;5.90;;;2.35;;
69569;SDS011;56781;42.292;23.146;2022-11-20T06:33:20;5.30;;;2.20;;
69569;SDS011;56781;42.292;23.146;2022-11-20T06:35:51;8.77;;;2.10;;
69569;SDS011;56781;42.292;23.146;2022-11-20T06:38:25;5.70;;;2.13;;
69569;SDS011;56781;42.292;23.146;2022-11-20T06:41:00;6.07;;;2.00;;
69569;SDS011;56781;42.292;23.146;2022-11-20T06:43:37;4.43;;;1.95;;
69569;SDS011;56781;42.292;23.146;2022-11-20T06:46:06;8.68;;;2.83;;
69569;SDS011;56781;42.292;23.146;2022-11-20T06:48:49;9.90;;;2.10;;
69569;SDS011;56781;42.292;23.146;2022-11-20T06:51:27;7.05;;;1.83;;
69569;SDS011;56781;42.292;23.146;2022-11-20T06:53:54;9.23;;;2.20;;
69569;SDS011;56781;42.292;23.146;2022-11-20T06:56:30;7.82;;;2.22;;
69569;SDS011;56781;42.292;23.146;2022-11-20T06:59:03;5.60;;;1.70;;
69569;SDS011;56781;42.292;23.146;2022-11-20T07:01:31;6.88;;;1.40;;
69569;SDS011;56781;42.292;23.146;2022-11-20T07:04:08;7.43;;;1.30;;
69569;SDS011;56781;42.292;23.146;2022-11-20T07:06:35;6.22;;;1.30;;
69569;SDS011;56781;42.292;23.146;2022-11-20T07:09:02;7.00;;;1.52;;
69569;SDS011;56781;42.292;23.146;2022-11-20T07:11:36;5.15;;;1.13;;
69569;SDS011;56781;42.292;23.146;2022-11-20T07:14:09;8.60;;;2.40;;
69569;SDS011;56781;42.292;23.146;2022-11-20T07:16:43;7.22;;;1.90;;
69569;SDS011;56781;42.292;23.146;2022-11-20T07:19:11;5.57;;;1.75;;
69569;SDS011;56781;42.292;23.146;2022-11-20T07:21:39;7.55;;;2.00;;
69569;SDS011;56781;42.292;23.146;2022-11-20T07:24:06;8.32;;;2.10;;
69569;SDS011;56781;42.292;23.146;2022-11-20T07:26:33;5.40;;;1.90;;
69569;SDS011;56781;42.292;23.146;2022-11-20T07:29:03;7.88;;;2.47;;
69569;SDS011;56781;42.292;23.146;2022-11-20T07:31:31;7.05;;;2.00;;
69569;SDS011;56781;42.292;23.146;2022-11-20T07:33:58;6.55;;;2.55;;
69569;SDS011;56781;42.292;23.146;2022-11-20T07:36:27;5.55;;;2.30;;
69569;SDS011;56781;42.292;23.146;2022-11-20T07:38:57;6.57;;;1.90;;
69569;SDS011;56781;42.292;23.146;2022-11-20T07:41:24;8.60;;;1.85;;
69569;SDS011;56781;42.292;23.146;2022-11-20T07:43:52;4.30;;;1.90;;
69569;SDS011;56781;42.292;23.146;2022-11-20T07:46:23;6.57;;;1.95;;
69569;SDS011;56781;42.292;23.146;2022-11-20T07:48:57;7.15;;;2.60;;
69569;SDS011;56781;42.292;23.146;2022-11-20T07:51:25;8.50;;;2.70;;
69569;SDS011;56781;42.292;23.146;2022-11-20T07:53:55;9.38;;;3.13;;
69569;SDS011;56781;42.292;23.146;2022-11-20T07:56:31;8.57;;;2.10;;
69569;SDS011;56781;42.292;23.146;2022-11-20T07:58:59;8.93;;;2.90;;
69569;SDS011;56781;42.292;23.146;2022-11-20T08:01:32;8.95;;;2.33;;
69569;SDS011;56781;42.292;23.146;2022-11-20T08:04:20;21.05;;;9.00;;
69569;SDS011;56781;42.292;23.146;2022-11-20T08:06:56;9.73;;;3.15;;
69569;SDS011;56781;42.292;23.146;2022-11-20T08:09:29;34.45;;;16.05;;
69569;SDS011;56781;42.292;23.146;2022-11-20T08:11:59;7.35;;;2.03;;
69569;SDS011;56781;42.292;23.146;2022-11-20T08:14:46;8.07;;;1.90;;
69569;SDS011;56781;42.292;23.146;2022-11-20T08:17:20;5.38;;;2.60;;
69569;SDS011;56781;42.292;23.146;2022-11-20T08:19:50;9.10;;;3.13;;
69569;SDS011;56781;42.292;23.146;2022-11-20T08:22:27;10.05;;;3.33;;
69569;SDS011;56781;42.292;23.146;2022-11-20T08:24:58;7.93;;;3.00;;
69569;SDS011;56781;42.292;23.146;2022-11-20T08:27:26;17.67;;;7.60;;
69569;SDS011;56781;42.292;23.146;2022-11-20T08:29:57;11.95;;;4.07;;
69569;SDS011;56781;42.292;23.146;2022-11-20T08:32:24;7.60;;;2.50;;
69569;SDS011;56781;42.292;23.146;2022-11-20T08:34:55;28.90;;;10.15;;
69569;SDS011;56781;42.292;23.146;2022-11-20T08:37:24;24.50;;;11.20;;
69569;SDS011;56781;42.292;23.146;2022-11-20T08:39:53;7.95;;;2.83;;
69569;SDS011;56781;42.292;23.146;2022-11-20T08:42:23;11.75;;;3.53;;
69569;SDS011;56781;42.292;23.146;2022-11-20T08:44:50;7.65;;;2.42;;
69569;SDS011;56781;42.292;23.146;2022-11-20T08:47:19;13.18;;;3.15;;
69569;SDS011;56781;42.292;23.146;2022-11-20T08:49:51;9.52;;;3.67;;
69569;SDS011;56781;42.292;23.146;2022-11-20T08:52:24;7.25;;;2.65;;
69569;SDS011;56781;42.292;23.146;2022-11-20T08:54:52;12.25;;;5.65;;
69569;SDS011;56781;42.292;23.146;2022-11-20T08:57:23;11.10;;;3.55;;
69569;SDS011;56781;42.292;23.146;2022-11-20T08:59:54;13.70;;;5.90;;
69569;SDS011;56781;42.292;23.146;2022-11-20T09:02:32;11.95;;;4.20;;
69569;SDS011;56781;42.292;23.146;2022-11-20T09:05:01;12.27;;;3.95;;
69569;SDS011;56781;42.292;23.146;2022-11-20T09:07:32;17.83;;;4.50;;
69569;SDS011;56781;42.292;23.146;2022-11-20T09:10:03;8.75;;;3.33;;
69569;SDS011;56781;42.292;23.146;2022-11-20T09:12:49;6.30;;;2.10;;
69569;SDS011;56781;42.292;23.146;2022-11-20T09:15:20;8.35;;;2.53;;
69569;SDS011;56781;42.292;23.146;2022-11-20T09:17:52;5.45;;;2.70;;
69569;SDS011;56781;42.292;23.146;2022-11-20T09:20:26;9.57;;;2.50;;
69569;SDS011;56781;42.292;23.146;2022-11-20T09:23:00;11.38;;;3.17;;
69569;SDS011;56781;42.292;23.146;2022-11-20T09:25:27;12.05;;;5.10;;
69569;SDS011;56781;42.292;23.146;2022-11-20T09:27:55;9.52;;;2.70;;
69569;SDS011;56781;42.292;23.146;2022-11-20T09:30:23;8.48;;;2.22;;
69569;SDS011;56781;42.292;23.146;2022-11-20T09:32:53;10.90;;;2.90;;
69569;SDS011;56781;42.292;23.146;2022-11-20T09:35:30;9.95;;;3.97;;
69569;SDS011;56781;42.292;23.146;2022-11-20T09:37:58;10.75;;;4.30;;
69569;SDS011;56781;42.292;23.146;2022-11-20T09:40:45;13.98;;;3.92;;
69569;SDS011;56781;42.292;23.146;2022-11-20T09:43:26;13.18;;;4.03;;
69569;SDS011;56781;42.292;23.146;2022-11-20T09:51:59;13.57;;;3.78;;
69569;SDS011;56781;42.292;23.146;2022-11-20T09:54:35;10.20;;;2.80;;
69569;SDS011;56781;42.292;23.146;2022-11-20T09:57:18;9.90;;;3.40;;
69569;SDS011;56781;42.292;23.146;2022-11-20T10:00:02;13.60;;;3.15;;
69569;SDS011;56781;42.292;23.146;2022-11-20T10:02:40;12.43;;;3.08;;
69569;SDS011;56781;42.292;23.146;2022-11-20T10:05:47;15.30;;;3.67;;
69569;SDS011;56781;42.292;23.146;2022-11-20T10:11:04;11.85;;;2.55;;
69569;SDS011;56781;42.292;23.146;2022-11-20T10:20:24;10.73;;;2.75;;
69569;SDS011;56781;42.292;23.146;2022-11-20T10:26:21;13.75;;;4.30;;
69569;SDS011;56781;42.292;23.146;2022-11-20T10:29:13;12.23;;;3.38;;
69569;SDS011;56781;42.292;23.146;2022-11-20T10:31:47;12.45;;;2.75;;
69569;SDS011;56781;42.292;23.146;2022-11-20T10:37:09;8.27;;;2.00;;
69569;SDS011;56781;42.292;23.146;2022-11-20T10:39:53;12.48;;;2.75;;
69569;SDS011;56781;42.292;23.146;2022-11-20T10:42:31;16.15;;;2.90;;
69569;SDS011;56781;42.292;23.146;2022-11-20T10:48:01;12.60;;;2.80;;
69569;SDS011;56781;42.292;23.146;2022-11-20T10:50:40;8.55;;;2.40;;
69569;SDS011;56781;42.292;23.146;2022-11-20T11:01:57;9.23;;;1.90;;
69569;SDS011;56781;42.292;23.146;2022-11-20T11:04:30;13.65;;;2.60;;
69569;SDS011;56781;42.292;23.146;2022-11-20T11:07:12;10.82;;;2.38;;
69569;SDS011;56781;42.292;23.146;2022-11-20T11:09:52;11.85;;;3.17;;
69569;SDS011;56781;42.292;23.146;2022-11-20T11:12:21;18.05;;;3.47;;
69569;SDS011;56781;42.292;23.146;2022-11-20T11:14:52;15.32;;;5.82;;
69569;SDS011;56781;42.292;23.146;2022-11-20T11:17:23;15.15;;;5.32;;
69569;SDS011;56781;42.292;23.146;2022-11-20T11:22:49;16.93;;;5.33;;
69569;SDS011;56781;42.292;23.146;2022-11-20T11:25:26;13.15;;;3.83;;
69569;SDS011;56781;42.292;23.146;2022-11-20T11:30:58;11.35;;;3.83;;
69569;SDS011;56781;42.292;23.146;2022-11-20T11:33:29;13.30;;;4.25;;
69569;SDS011;56781;42.292;23.146;2022-11-20T11:36:14;12.30;;;4.23;;
69569;SDS011;56781;42.292;23.146;2022-11-20T11:38:50;9.63;;;3.33;;
69569;SDS011;56781;42.292;23.146;2022-11-20T11:41:22;14.43;;;4.78;;
69569;SDS011;56781;42.292;23.146;2022-11-20T11:44:15;11.65;;;6.53;;
69569;SDS011;56781;42.292;23.146;2022-11-20T11:47:05;12.23;;;5.00;;
69569;SDS011;56781;42.292;23.146;2022-11-20T11:49:43;7.90;;;2.40;;
69569;SDS011;56781;42.292;23.146;2022-11-20T11:55:17;7.97;;;2.38;;
69569;SDS011;56781;42.292;23.146;2022-11-20T11:58:33;9.68;;;2.40;;
69569;SDS011;56781;42.292;23.146;2022-11-20T12:01:20;5.68;;;2.47;;
69569;SDS011;56781;42.292;23.146;2022-11-20T12:04:40;7.20;;;2.70;;
69569;SDS011;56781;42.292;23.146;2022-11-20T12:10:39;12.60;;;6.30;;
69569;SDS011;56781;42.292;23.146;2022-11-20T12:15:53;14.25;;;6.90;;
69569;SDS011;56781;42.292;23.146;2022-11-20T12:18:21;21.90;;;9.13;;
69569;SDS011;56781;42.292;23.146;2022-11-20T12:26:32;12.38;;;5.00;;
69569;SDS011;56781;42.292;23.146;2022-11-20T12:38:26;14.55;;;4.78;;
69569;SDS011;56781;42.292;23.146;2022-11-20T12:47:45;19.30;;;5.80;;
69569;SDS011;56781;42.292;23.146;2022-11-20T12:53:43;15.70;;;5.38;;
69569;SDS011;56781;42.292;23.146;2022-11-20T12:56:40;17.20;;;6.65;;
69569;SDS011;56781;42.292;23.146;2022-11-20T12:59:39;14.52;;;6.22;;
69569;SDS011;56781;42.292;23.146;2022-11-20T13:05:19;14.82;;;3.22;;
69569;SDS011;56781;42.292;23.146;2022-11-20T13:07:54;13.48;;;3.10;;
69569;SDS011;56781;42.292;23.146;2022-11-20T13:10:38;12.88;;;2.95;;
69569;SDS011;56781;42.292;23.146;2022-11-20T13:16:02;8.97;;;2.40;;
69569;SDS011;56781;42.292;23.146;2022-11-20T13:18:53;14.02;;;2.85;;
69569;SDS011;56781;42.292;23.146;2022-11-20T13:21:22;7.57;;;2.80;;
69569;SDS011;56781;42.292;23.146;2022-11-20T13:24:05;8.95;;;2.38;;
69569;SDS011;56781;42.292;23.146;2022-11-20T13:29:34;13.45;;;4.55;;
69569;SDS011;56781;42.292;23.146;2022-11-20T13:32:07;8.32;;;2.90;;
69569;SDS011;56781;42.292;23.146;2022-11-20T13:34:50;16.33;;;5.13;;
69569;SDS011;56781;42.292;23.146;2022-11-20T13:37:26;16.65;;;4.90;;
69569;SDS011;56781;42.292;23.146;2022-11-20T13:46:04;32.42;;;13.82;;
69569;SDS011;56781;42.292;23.146;2022-11-20T13:48:45;27.17;;;10.05;;
69569;SDS011;56781;42.292;23.146;2022-11-20T13:54:28;15.90;;;6.68;;
69569;SDS011;56781;42.292;23.146;2022-11-20T13:57:27;23.40;;;11.48;;
69569;SDS011;56781;42.292;23.146;2022-11-20T14:00:19;12.25;;;5.15;;
69569;SDS011;56781;42.292;23.146;2022-11-20T14:03:16;11.00;;;4.10;;
69569;SDS011;56781;42.292;23.146;2022-11-20T14:06:11;35.53;;;16.45;;
69569;SDS011;56781;42.292;23.146;2022-11-20T14:08:45;21.05;;;8.15;;
69569;SDS011;56781;42.292;23.146;2022-11-20T14:11:17;18.97;;;6.40;;
69569;SDS011;56781;42.292;23.146;2022-11-20T14:13:53;16.58;;;7.30;;
69569;SDS011;56781;42.292;23.146;2022-11-20T14:16:25;17.92;;;7.97;;
69569;SDS011;56781;42.292;23.146;2022-11-20T14:18:56;23.83;;;10.43;;
69569;SDS011;56781;42.292;23.146;2022-11-20T14:21:26;19.65;;;7.10;;
69569;SDS011;56781;42.292;23.146;2022-11-20T14:24:06;13.98;;;4.05;;
69569;SDS011;56781;42.292;23.146;2022-11-20T14:26:43;17.80;;;7.38;;
69569;SDS011;56781;42.292;23.146;2022-11-20T14:29:13;14.77;;;3.70;;
69569;SDS011;56781;42.292;23.146;2022-11-20T14:31:44;10.55;;;3.67;;
69569;SDS011;56781;42.292;23.146;2022-11-20T14:34:23;12.48;;;3.60;;
69569;SDS011;56781;42.292;23.146;2022-11-20T14:37:05;15.77;;;3.60;;
69569;SDS011;56781;42.292;23.146;2022-11-20T14:39:43;12.57;;;3.90;;
69569;SDS011;56781;42.292;23.146;2022-11-20T14:42:21;14.30;;;5.00;;
69569;SDS011;56781;42.292;23.146;2022-11-20T14:44:51;23.73;;;11.15;;
69569;SDS011;56781;42.292;23.146;2022-11-20T14:47:25;13.13;;;6.72;;
69569;SDS011;56781;42.292;23.146;2022-11-20T14:49:55;12.10;;;6.10;;
69569;SDS011;56781;42.292;23.146;2022-11-20T14:52:31;17.95;;;11.20;;
69569;SDS011;56781;42.292;23.146;2022-11-20T14:54:59;16.98;;;7.63;;
69569;SDS011;56781;42.292;23.146;2022-11-20T14:57:27;36.97;;;16.27;;
69569;SDS011;56781;42.292;23.146;2022-11-20T15:02:44;30.30;;;12.65;;
69569;SDS011;56781;42.292;23.146;2022-11-20T15:05:17;14.63;;;5.85;;
69569;SDS011;56781;42.292;23.146;2022-11-20T15:07:46;17.90;;;8.63;;
69569;SDS011;56781;42.292;23.146;2022-11-20T15:10:26;15.98;;;6.22;;
69569;SDS011;56781;42.292;23.146;2022-11-20T15:12:55;12.20;;;4.60;;
69569;SDS011;56781;42.292;23.146;2022-11-20T15:15:36;18.67;;;6.60;;
69569;SDS011;56781;42.292;23.146;2022-11-20T15:18:13;15.50;;;6.10;;
69569;SDS011;56781;42.292;23.146;2022-11-20T15:20:42;13.48;;;4.90;;
69569;SDS011;56781;42.292;23.146;2022-11-20T15:23:19;16.35;;;5.53;;
69569;SDS011;56781;42.292;23.146;2022-11-20T15:25:46;15.15;;;5.28;;
69569;SDS011;56781;42.292;23.146;2022-11-20T15:31:01;19.70;;;7.82;;
69569;SDS011;56781;42.292;23.146;2022-11-20T15:33:31;19.25;;;4.15;;
69569;SDS011;56781;42.292;23.146;2022-11-20T15:35:59;18.83;;;8.20;;
69569;SDS011;56781;42.292;23.146;2022-11-20T15:38:34;18.50;;;6.65;;
69569;SDS011;56781;42.292;23.146;2022-11-20T15:41:01;16.80;;;5.20;;
69569;SDS011;56781;42.292;23.146;2022-11-20T15:43:30;26.77;;;8.05;;
69569;SDS011;56781;42.292;23.146;2022-11-20T15:46:13;15.77;;;4.72;;
69569;SDS011;56781;42.292;23.146;2022-11-20T15:48:43;16.45;;;5.40;;
69569;SDS011;56781;42.292;23.146;2022-11-20T15:51:27;18.88;;;6.57;;
69569;SDS011;56781;42.292;23.146;2022-11-20T15:53:57;30.07;;;9.63;;
69569;SDS011;56781;42.292;23.146;2022-11-20T15:56:27;28.85;;;9.18;;
69569;SDS011;56781;42.292;23.146;2022-11-20T15:58:54;27.05;;;7.15;;
69569;SDS011;56781;42.292;23.146;2022-11-20T16:01:21;17.65;;;6.85;;
69569;SDS011;56781;42.292;23.146;2022-11-20T16:03:49;27.70;;;12.75;;
69569;SDS011;56781;42.292;23.146;2022-11-20T16:06:17;23.90;;;10.33;;
69569;SDS011;56781;42.292;23.146;2022-11-20T16:08:48;21.40;;;9.60;;
69569;SDS011;56781;42.292;23.146;2022-11-20T16:11:16;17.83;;;6.43;;
69569;SDS011;56781;42.292;23.146;2022-11-20T16:13:45;8.57;;;2.40;;
69569;SDS011;56781;42.292;23.146;2022-11-20T16:16:36;5.65;;;1.17;;
69569;SDS011;56781;42.292;23.146;2022-11-20T16:19:36;4.53;;;0.70;;
69569;SDS011;56781;42.292;23.146;2022-11-20T16:22:09;6.35;;;1.05;;
69569;SDS011;56781;42.292;23.146;2022-11-20T16:24:42;2.83;;;0.68;;
69569;SDS011;56781;42.292;23.146;2022-11-20T16:27:16;3.55;;;0.70;;
69569;SDS011;56781;42.292;23.146;2022-11-20T16:29:57;3.22;;;0.73;;
69569;SDS011;56781;42.292;23.146;2022-11-20T16:32:26;6.67;;;1.90;;
69569;SDS011;56781;42.292;23.146;2022-11-20T16:34:59;2.25;;;0.70;;
69569;SDS011;56781;42.292;23.146;2022-11-20T16:37:29;4.53;;;1.05;;
69569;SDS011;56781;42.292;23.146;2022-11-20T16:39:58;9.63;;;1.80;;
69569;SDS011;56781;42.292;23.146;2022-11-20T16:42:25;1.38;;;0.40;;
69569;SDS011;56781;42.292;23.146;2022-11-20T16:44:57;2.87;;;0.47;;
69569;SDS011;56781;42.292;23.146;2022-11-20T16:47:25;2.42;;;0.25;;
69569;SDS011;56781;42.292;23.146;2022-11-20T16:50:09;1.45;;;0.38;;
69569;SDS011;56781;42.292;23.146;2022-11-20T16:52:36;1.75;;;0.57;;
69569;SDS011;56781;42.292;23.146;2022-11-20T16:55:03;1.83;;;0.50;;